createdAt,value
2022-07-31T00:00:05.943Z,997.75
2022-07-31T00:01:05.877Z,997.84
2022-07-31T00:02:05.870Z,997.80
2022-07-31T00:03:05.942Z,997.81
2022-07-31T00:04:05.855Z,997.75
2022-07-31T00:05:05.844Z,997.82
2022-07-31T00:06:05.838Z,997.87
2022-07-31T00:07:06.246Z,997.85
2022-07-31T00:08:05.852Z,997.87
2022-07-31T00:09:05.823Z,997.88
2022-07-31T00:10:06.801Z,997.85
2022-07-31T00:11:05.793Z,997.86
2022-07-31T00:12:05.781Z,997.88
2022-07-31T00:13:06.814Z,997.92
2022-07-31T00:14:05.774Z,997.95
2022-07-31T00:15:05.815Z,997.88
2022-07-31T00:16:05.756Z,997.85
2022-07-31T00:17:05.998Z,997.91
2022-07-31T00:18:05.770Z,997.89
2022-07-31T00:19:05.737Z,997.91
2022-07-31T00:20:05.726Z,997.90
2022-07-31T00:21:05.723Z,997.91
2022-07-31T00:22:05.721Z,997.93
2022-07-31T00:23:05.830Z,997.90
2022-07-31T00:24:05.696Z,997.88
2022-07-31T00:25:05.692Z,997.95
2022-07-31T00:26:05.683Z,997.96
2022-07-31T00:27:06.148Z,997.87
2022-07-31T00:28:05.694Z,997.90
2022-07-31T00:29:05.655Z,997.92
2022-07-31T00:30:05.648Z,997.90
2022-07-31T00:31:05.641Z,997.83
2022-07-31T00:32:05.640Z,997.90
2022-07-31T00:33:05.658Z,997.84
2022-07-31T00:34:05.612Z,997.83
2022-07-31T00:35:05.655Z,997.85
2022-07-31T00:36:05.602Z,997.83
2022-07-31T00:37:05.860Z,997.81
2022-07-31T00:38:26.369Z,997.87
2022-07-31T00:39:07.578Z,997.88
2022-07-31T00:40:05.568Z,997.91
2022-07-31T00:41:05.565Z,997.79
2022-07-31T00:42:05.555Z,997.90
2022-07-31T00:43:05.550Z,997.74
2022-07-31T00:44:05.577Z,997.81
2022-07-31T00:45:06.530Z,997.87
2022-07-31T00:46:05.527Z,997.76
2022-07-31T00:47:06.755Z,997.82
2022-07-31T00:48:05.507Z,997.84
2022-07-31T00:49:05.587Z,997.79
2022-07-31T00:50:05.496Z,997.72
2022-07-31T00:51:05.489Z,997.79
2022-07-31T00:52:05.483Z,997.70
2022-07-31T00:53:05.473Z,997.74
2022-07-31T00:54:05.495Z,997.77
2022-07-31T00:55:05.455Z,997.76
2022-07-31T00:56:05.456Z,997.72
2022-07-31T00:57:05.791Z,997.71
2022-07-31T00:58:05.426Z,997.77
2022-07-31T00:59:05.451Z,997.75
2022-07-31T01:00:05.417Z,997.73
2022-07-31T01:01:05.443Z,997.76
2022-07-31T01:02:05.404Z,997.79
2022-07-31T01:03:05.393Z,997.75
2022-07-31T01:04:05.421Z,997.78
2022-07-31T01:05:05.380Z,997.81
2022-07-31T01:06:05.380Z,997.74
2022-07-31T01:07:05.662Z,997.77
2022-07-31T01:08:05.368Z,997.76
2022-07-31T01:09:05.377Z,997.76
2022-07-31T01:10:05.346Z,997.76
2022-07-31T01:11:05.338Z,997.72
2022-07-31T01:12:05.333Z,997.75
2022-07-31T01:13:05.323Z,997.75
2022-07-31T01:14:05.347Z,997.72
2022-07-31T01:15:05.302Z,997.73
2022-07-31T01:16:05.309Z,997.67
2022-07-31T01:17:05.738Z,997.74
2022-07-31T01:18:05.286Z,997.71
2022-07-31T01:19:05.304Z,997.74
2022-07-31T01:20:05.265Z,997.66
2022-07-31T01:21:37.946Z,997.74
2022-07-31T01:22:05.260Z,997.66
2022-07-31T01:23:06.242Z,997.66
2022-07-31T01:24:05.246Z,997.71
2022-07-31T01:25:06.236Z,997.67
2022-07-31T01:26:05.226Z,997.65
2022-07-31T01:27:05.576Z,997.67
2022-07-31T01:28:05.207Z,997.64
2022-07-31T01:29:05.225Z,997.62
2022-07-31T01:30:05.188Z,997.64
2022-07-31T01:31:25.577Z,997.67
2022-07-31T01:32:07.184Z,997.63
2022-07-31T01:33:05.174Z,997.64
2022-07-31T01:34:05.187Z,997.66
2022-07-31T01:35:05.150Z,997.64
2022-07-31T01:36:05.153Z,997.58
2022-07-31T01:37:05.555Z,997.65
2022-07-31T01:38:05.130Z,997.65
2022-07-31T01:39:05.168Z,997.61
2022-07-31T01:40:05.117Z,997.66
2022-07-31T01:41:05.111Z,997.59
2022-07-31T01:42:05.370Z,997.57
2022-07-31T01:43:05.099Z,997.52
2022-07-31T01:44:05.116Z,997.56
2022-07-31T01:45:05.083Z,997.52
2022-07-31T01:46:05.073Z,997.58
2022-07-31T01:47:05.390Z,997.55
2022-07-31T01:48:05.060Z,997.58
2022-07-31T01:49:05.158Z,997.57
2022-07-31T01:50:05.052Z,997.54
2022-07-31T01:51:05.034Z,997.55
2022-07-31T01:52:05.328Z,997.58
2022-07-31T01:53:05.022Z,997.58
2022-07-31T01:54:05.010Z,997.53
2022-07-31T01:55:05.034Z,997.52
2022-07-31T01:56:04.992Z,997.51
2022-07-31T01:57:04.987Z,997.53
2022-07-31T01:58:04.972Z,997.52
2022-07-31T01:59:20.746Z,997.52
2022-07-31T02:00:05.993Z,997.46
2022-07-31T02:01:06.025Z,997.48
2022-07-31T02:02:05.338Z,997.49
2022-07-31T02:03:09.436Z,997.47
2022-07-31T02:04:05.933Z,997.42
2022-07-31T02:05:04.962Z,997.46
2022-07-31T02:06:04.919Z,997.47
2022-07-31T02:07:04.917Z,997.46
2022-07-31T02:08:04.907Z,997.45
2022-07-31T02:09:04.907Z,997.48
2022-07-31T02:10:04.924Z,997.51
2022-07-31T02:11:04.896Z,997.47
2022-07-31T02:12:05.277Z,997.47
2022-07-31T02:13:04.872Z,997.41
2022-07-31T02:14:04.865Z,997.42
2022-07-31T02:15:04.882Z,997.43
2022-07-31T02:16:05.047Z,997.42
2022-07-31T02:17:04.842Z,997.47
2022-07-31T02:18:04.828Z,997.48
2022-07-31T02:19:04.826Z,997.47
2022-07-31T02:20:04.842Z,997.49
2022-07-31T02:21:04.794Z,997.50
2022-07-31T02:22:05.965Z,997.44
2022-07-31T02:23:04.796Z,997.44
2022-07-31T02:24:04.788Z,997.46
2022-07-31T02:25:04.807Z,997.43
2022-07-31T02:26:04.773Z,997.42
2022-07-31T02:27:04.759Z,997.40
2022-07-31T02:28:05.752Z,997.41
2022-07-31T02:29:04.770Z,997.29
2022-07-31T02:30:04.775Z,997.40
2022-07-31T02:31:04.734Z,997.44
2022-07-31T02:32:04.722Z,997.41
2022-07-31T02:33:04.724Z,997.40
2022-07-31T02:34:04.714Z,997.43
2022-07-31T02:35:04.726Z,997.41
2022-07-31T02:36:04.701Z,997.46
2022-07-31T02:37:04.688Z,997.44
2022-07-31T02:38:04.672Z,997.44
2022-07-31T02:39:04.669Z,997.44
2022-07-31T02:40:04.686Z,997.48
2022-07-31T02:41:04.661Z,997.47
2022-07-31T02:42:04.959Z,997.39
2022-07-31T02:43:04.637Z,997.38
2022-07-31T02:44:04.632Z,997.40
2022-07-31T02:45:04.648Z,997.43
2022-07-31T02:46:04.608Z,997.39
2022-07-31T02:47:04.603Z,997.32
2022-07-31T02:48:04.596Z,997.37
2022-07-31T02:49:04.622Z,997.38
2022-07-31T02:50:04.609Z,997.33
2022-07-31T02:51:04.582Z,997.33
2022-07-31T02:52:04.886Z,997.28
2022-07-31T02:53:04.560Z,997.28
2022-07-31T02:54:04.559Z,997.33
2022-07-31T02:55:04.566Z,997.36
2022-07-31T02:56:04.751Z,997.32
2022-07-31T02:57:04.528Z,997.31
2022-07-31T02:58:04.563Z,997.30
2022-07-31T02:59:04.501Z,997.28
2022-07-31T03:00:05.527Z,997.27
2022-07-31T03:01:04.591Z,997.30
2022-07-31T03:02:04.788Z,997.30
2022-07-31T03:03:04.478Z,997.30
2022-07-31T03:04:04.476Z,997.26
2022-07-31T03:05:04.494Z,997.36
2022-07-31T03:06:04.471Z,997.24
2022-07-31T03:07:04.447Z,997.15
2022-07-31T03:08:04.448Z,997.29
2022-07-31T03:09:04.439Z,997.29
2022-07-31T03:10:04.431Z,997.25
2022-07-31T03:11:04.446Z,997.21
2022-07-31T03:12:05.099Z,997.21
2022-07-31T03:13:04.423Z,997.28
2022-07-31T03:14:04.403Z,997.21
2022-07-31T03:15:04.393Z,997.19
2022-07-31T03:16:04.415Z,997.18
2022-07-31T03:17:04.376Z,997.18
2022-07-31T03:18:11.119Z,997.16
2022-07-31T03:19:05.359Z,997.19
2022-07-31T03:20:04.353Z,997.11
2022-07-31T03:21:04.376Z,997.16
2022-07-31T03:22:04.677Z,997.18
2022-07-31T03:23:04.335Z,997.19
2022-07-31T03:24:04.321Z,997.16
2022-07-31T03:25:04.319Z,997.23
2022-07-31T03:26:04.334Z,997.15
2022-07-31T03:27:04.301Z,997.19
2022-07-31T03:28:04.304Z,997.11
2022-07-31T03:29:04.283Z,997.22
2022-07-31T03:30:05.274Z,997.24
2022-07-31T03:31:04.295Z,997.27
2022-07-31T03:32:04.609Z,997.20
2022-07-31T03:33:04.252Z,997.24
2022-07-31T03:34:04.245Z,997.21
2022-07-31T03:35:04.234Z,997.25
2022-07-31T03:36:04.253Z,997.25
2022-07-31T03:37:04.225Z,997.17
2022-07-31T03:38:41.680Z,997.14
2022-07-31T03:39:05.209Z,997.16
2022-07-31T03:40:04.199Z,997.18
2022-07-31T03:41:04.216Z,997.14
2022-07-31T03:42:04.495Z,997.14
2022-07-31T03:43:04.179Z,997.20
2022-07-31T03:44:04.170Z,997.17
2022-07-31T03:45:04.171Z,997.15
2022-07-31T03:46:04.181Z,997.21
2022-07-31T03:47:04.154Z,997.25
2022-07-31T03:48:04.144Z,997.22
2022-07-31T03:49:04.173Z,997.19
2022-07-31T03:50:04.134Z,997.24
2022-07-31T03:51:04.150Z,997.17
2022-07-31T03:52:06.452Z,997.19
2022-07-31T03:53:06.099Z,997.25
2022-07-31T03:54:05.093Z,997.22
2022-07-31T03:55:04.087Z,997.27
2022-07-31T03:56:04.101Z,997.22
2022-07-31T03:57:04.076Z,997.22
2022-07-31T03:58:04.066Z,997.27
2022-07-31T03:59:04.058Z,997.30
2022-07-31T04:00:04.050Z,997.21
2022-07-31T04:01:04.677Z,997.33
2022-07-31T04:02:06.027Z,997.32
2022-07-31T04:03:04.035Z,997.25
2022-07-31T04:04:04.026Z,997.28
2022-07-31T04:05:09.506Z,997.27
2022-07-31T04:06:06.035Z,997.26
2022-07-31T04:07:04.007Z,997.23
2022-07-31T04:08:03.988Z,997.25
2022-07-31T04:09:07.872Z,997.23
2022-07-31T04:10:04.973Z,997.25
2022-07-31T04:11:03.994Z,997.18
2022-07-31T04:12:04.242Z,997.24
2022-07-31T04:13:03.950Z,997.18
2022-07-31T04:14:03.941Z,997.23
2022-07-31T04:15:03.934Z,997.13
2022-07-31T04:16:03.963Z,997.13
2022-07-31T04:17:03.920Z,997.20
2022-07-31T04:18:03.910Z,997.27
2022-07-31T04:19:03.902Z,997.26
2022-07-31T04:20:05.617Z,997.28
2022-07-31T04:21:03.939Z,997.28
2022-07-31T04:22:04.216Z,997.28
2022-07-31T04:23:03.871Z,997.34
2022-07-31T04:24:03.865Z,997.27
2022-07-31T04:25:03.847Z,997.34
2022-07-31T04:26:04.878Z,997.31
2022-07-31T04:27:03.844Z,997.37
2022-07-31T04:28:03.837Z,997.38
2022-07-31T04:29:03.839Z,997.36
2022-07-31T04:30:03.818Z,997.34
2022-07-31T04:31:03.839Z,997.38
2022-07-31T04:32:04.044Z,997.29
2022-07-31T04:33:03.801Z,997.42
2022-07-31T04:34:03.790Z,997.42
2022-07-31T04:35:03.786Z,997.33
2022-07-31T04:36:03.802Z,997.34
2022-07-31T04:37:03.769Z,997.27
2022-07-31T04:38:03.754Z,997.34
2022-07-31T04:39:03.754Z,997.30
2022-07-31T04:40:03.751Z,997.34
2022-07-31T04:41:03.768Z,997.41
2022-07-31T04:42:03.978Z,997.32
2022-07-31T04:43:03.726Z,997.38
2022-07-31T04:44:03.710Z,997.36
2022-07-31T04:45:03.704Z,997.42
2022-07-31T04:46:03.732Z,997.35
2022-07-31T04:47:04.684Z,997.36
2022-07-31T04:48:03.686Z,997.39
2022-07-31T04:49:03.789Z,997.33
2022-07-31T04:50:03.679Z,997.40
2022-07-31T04:51:03.679Z,997.36
2022-07-31T04:52:03.885Z,997.31
2022-07-31T04:53:03.648Z,997.42
2022-07-31T04:54:03.627Z,997.36
2022-07-31T04:55:03.629Z,997.31
2022-07-31T04:56:03.647Z,997.41
2022-07-31T04:57:03.614Z,997.51
2022-07-31T04:58:03.604Z,997.39
2022-07-31T04:59:03.595Z,997.39
2022-07-31T05:00:03.595Z,997.45
2022-07-31T05:01:03.603Z,997.49
2022-07-31T05:02:04.917Z,997.47
2022-07-31T05:03:03.571Z,997.48
2022-07-31T05:04:03.558Z,997.42
2022-07-31T05:05:03.545Z,997.44
2022-07-31T05:06:03.545Z,997.39
2022-07-31T05:07:03.556Z,997.32
2022-07-31T05:08:03.525Z,997.46
2022-07-31T05:09:08.447Z,997.47
2022-07-31T05:10:05.518Z,997.49
2022-07-31T05:11:03.502Z,997.45
2022-07-31T05:12:03.808Z,997.43
2022-07-31T05:13:03.491Z,997.54
2022-07-31T05:14:03.486Z,997.41
2022-07-31T05:15:03.478Z,997.42
2022-07-31T05:16:03.469Z,997.47
2022-07-31T05:17:03.485Z,997.40
2022-07-31T05:18:03.449Z,997.47
2022-07-31T05:19:03.446Z,997.49
2022-07-31T05:20:03.436Z,997.42
2022-07-31T05:21:03.431Z,997.50
2022-07-31T05:22:03.445Z,997.47
2022-07-31T05:23:06.566Z,997.41
2022-07-31T05:24:03.408Z,997.45
2022-07-31T05:25:03.393Z,997.43
2022-07-31T05:26:03.402Z,997.37
2022-07-31T05:27:03.423Z,997.39
2022-07-31T05:28:03.376Z,997.34
2022-07-31T05:29:04.377Z,997.44
2022-07-31T05:30:03.365Z,997.39
2022-07-31T05:31:03.363Z,997.45
2022-07-31T05:32:03.377Z,997.41
2022-07-31T05:33:03.327Z,997.39
2022-07-31T05:34:04.332Z,997.38
2022-07-31T05:35:03.328Z,997.28
2022-07-31T05:36:03.318Z,997.36
2022-07-31T05:37:03.357Z,997.37
2022-07-31T05:38:03.301Z,997.29
2022-07-31T05:39:03.299Z,997.26
2022-07-31T05:40:03.284Z,997.25
2022-07-31T05:41:03.281Z,997.22
2022-07-31T05:42:03.534Z,997.34
2022-07-31T05:43:03.263Z,997.30
2022-07-31T05:44:03.256Z,997.28
2022-07-31T05:45:03.247Z,997.28
2022-07-31T05:46:03.242Z,997.30
2022-07-31T05:47:03.262Z,997.28
2022-07-31T05:48:03.223Z,997.33
2022-07-31T05:49:03.298Z,997.30
2022-07-31T05:50:03.226Z,997.24
2022-07-31T05:51:05.574Z,997.28
2022-07-31T05:52:04.470Z,997.23
2022-07-31T05:53:03.193Z,997.33
2022-07-31T05:54:03.179Z,997.38
2022-07-31T05:55:03.177Z,997.32
2022-07-31T05:56:03.161Z,997.34
2022-07-31T05:57:03.181Z,997.37
2022-07-31T05:58:03.145Z,997.30
2022-07-31T05:59:03.146Z,997.32
2022-07-31T06:00:03.804Z,997.34
2022-07-31T06:01:03.168Z,997.32
2022-07-31T06:02:03.509Z,997.34
2022-07-31T06:03:03.117Z,997.29
2022-07-31T06:04:03.108Z,997.34
2022-07-31T06:05:03.091Z,997.30
2022-07-31T06:06:03.092Z,997.34
2022-07-31T06:07:03.110Z,997.29
2022-07-31T06:08:03.067Z,997.31
2022-07-31T06:09:04.786Z,997.31
2022-07-31T06:10:04.079Z,997.34
2022-07-31T06:11:03.048Z,997.33
2022-07-31T06:12:03.350Z,997.31
2022-07-31T06:13:03.033Z,997.30
2022-07-31T06:14:03.142Z,997.28
2022-07-31T06:15:03.019Z,997.32
2022-07-31T06:16:03.013Z,997.26
2022-07-31T06:17:03.029Z,997.27
2022-07-31T06:18:02.997Z,997.24
2022-07-31T06:19:02.991Z,997.25
2022-07-31T06:20:02.981Z,997.28
2022-07-31T06:21:02.972Z,997.33
2022-07-31T06:22:03.293Z,997.30
2022-07-31T06:23:02.954Z,997.28
2022-07-31T06:24:03.948Z,997.28
2022-07-31T06:25:02.938Z,997.30
2022-07-31T06:26:03.398Z,997.32
2022-07-31T06:27:02.949Z,997.40
2022-07-31T06:28:04.200Z,997.31
2022-07-31T06:29:03.905Z,997.28
2022-07-31T06:30:02.907Z,997.31
2022-07-31T06:31:02.936Z,997.25
2022-07-31T06:32:03.256Z,997.26
2022-07-31T06:33:08.174Z,997.33
2022-07-31T06:34:03.864Z,997.32
2022-07-31T06:35:02.869Z,997.27
2022-07-31T06:36:02.893Z,997.28
2022-07-31T06:37:02.849Z,997.30
2022-07-31T06:38:02.859Z,997.22
2022-07-31T06:39:02.824Z,997.24
2022-07-31T06:40:02.830Z,997.29
2022-07-31T06:41:02.809Z,997.22
2022-07-31T06:42:03.106Z,997.24
2022-07-31T06:43:06.731Z,997.22
2022-07-31T06:44:03.786Z,997.22
2022-07-31T06:45:02.779Z,997.24
2022-07-31T06:46:02.775Z,997.23
2022-07-31T06:47:02.775Z,997.30
2022-07-31T06:48:02.791Z,997.26
2022-07-31T06:49:08.296Z,997.28
2022-07-31T06:50:04.739Z,997.28
2022-07-31T06:51:29.775Z,997.22
2022-07-31T06:52:05.137Z,997.23
2022-07-31T06:53:02.742Z,997.21
2022-07-31T06:54:02.710Z,997.23
2022-07-31T06:55:02.708Z,997.22
2022-07-31T06:56:02.689Z,997.23
2022-07-31T06:57:02.673Z,997.28
2022-07-31T06:58:03.703Z,997.25
2022-07-31T06:59:02.671Z,997.27
2022-07-31T07:00:07.229Z,997.27
2022-07-31T07:01:04.700Z,997.23
2022-07-31T07:02:03.028Z,997.23
2022-07-31T07:03:02.667Z,997.29
2022-07-31T07:04:02.639Z,997.20
2022-07-31T07:05:05.596Z,997.25
2022-07-31T07:06:02.624Z,997.24
2022-07-31T07:07:02.610Z,997.31
2022-07-31T07:08:02.623Z,997.31
2022-07-31T07:09:02.608Z,997.27
2022-07-31T07:10:02.590Z,997.32
2022-07-31T07:11:02.581Z,997.29
2022-07-31T07:12:02.669Z,997.28
2022-07-31T07:13:02.597Z,997.25
2022-07-31T07:14:02.555Z,997.26
2022-07-31T07:15:02.549Z,997.32
2022-07-31T07:16:02.544Z,997.31
2022-07-31T07:17:02.545Z,997.34
2022-07-31T07:18:02.560Z,997.27
2022-07-31T07:19:02.531Z,997.32
2022-07-31T07:20:02.510Z,997.25
2022-07-31T07:21:02.498Z,997.26
2022-07-31T07:22:35.070Z,997.26
2022-07-31T07:23:02.524Z,997.22
2022-07-31T07:24:02.482Z,997.21
2022-07-31T07:25:02.475Z,997.22
2022-07-31T07:26:02.475Z,997.11
2022-07-31T07:27:02.459Z,997.18
2022-07-31T07:28:02.478Z,997.11
2022-07-31T07:29:02.448Z,997.02
2022-07-31T07:30:02.455Z,997.03
2022-07-31T07:31:02.513Z,997.05
2022-07-31T07:32:02.938Z,997.06
2022-07-31T07:33:02.440Z,996.96
2022-07-31T07:34:02.405Z,996.96
2022-07-31T07:35:02.403Z,997.04
2022-07-31T07:36:02.390Z,996.93
2022-07-31T07:37:02.378Z,997.02
2022-07-31T07:38:02.402Z,996.96
2022-07-31T07:39:02.369Z,996.95
2022-07-31T07:40:03.644Z,996.96
2022-07-31T07:41:02.353Z,996.91
2022-07-31T07:42:02.618Z,996.97
2022-07-31T07:43:03.289Z,996.84
2022-07-31T07:44:03.333Z,996.93
2022-07-31T07:45:02.332Z,996.88
2022-07-31T07:46:02.317Z,996.83
2022-07-31T07:47:02.387Z,996.85
2022-07-31T07:48:06.164Z,996.81
2022-07-31T07:49:03.330Z,996.86
2022-07-31T07:50:02.292Z,996.79
2022-07-31T07:51:02.278Z,996.80
2022-07-31T07:52:02.269Z,996.82
2022-07-31T07:53:02.293Z,996.80
2022-07-31T07:54:02.263Z,996.87
2022-07-31T07:55:02.252Z,996.87
2022-07-31T07:56:02.245Z,996.81
2022-07-31T07:57:02.234Z,996.75
2022-07-31T07:58:02.228Z,996.76
2022-07-31T07:59:02.248Z,996.83
2022-07-31T08:00:02.217Z,996.81
2022-07-31T08:01:02.290Z,996.77
2022-07-31T08:02:02.647Z,996.83
2022-07-31T08:03:46.536Z,996.77
2022-07-31T08:04:03.205Z,996.84
2022-07-31T08:05:02.181Z,996.79
2022-07-31T08:06:02.169Z,996.76
2022-07-31T08:07:02.162Z,996.77
2022-07-31T08:08:02.168Z,996.75
2022-07-31T08:09:02.184Z,996.80
2022-07-31T08:10:02.141Z,996.80
2022-07-31T08:11:02.148Z,996.75
2022-07-31T08:12:02.418Z,996.71
2022-07-31T08:13:02.117Z,996.76
2022-07-31T08:14:02.149Z,996.69
2022-07-31T08:15:02.103Z,996.68
2022-07-31T08:16:02.093Z,996.67
2022-07-31T08:17:02.089Z,996.69
2022-07-31T08:18:02.221Z,996.68
2022-07-31T08:19:02.103Z,996.65
2022-07-31T08:20:02.066Z,996.72
2022-07-31T08:21:02.059Z,996.64
2022-07-31T08:22:02.267Z,996.70
2022-07-31T08:23:02.091Z,996.65
2022-07-31T08:24:02.061Z,996.68
2022-07-31T08:25:05.358Z,996.69
2022-07-31T08:26:02.021Z,996.65
2022-07-31T08:27:02.013Z,996.70
2022-07-31T08:28:02.999Z,996.62
2022-07-31T08:29:05.068Z,996.67
2022-07-31T08:30:02.988Z,996.61
2022-07-31T08:31:01.980Z,996.70
2022-07-31T08:32:02.399Z,996.64
2022-07-31T08:33:02.016Z,996.64
2022-07-31T08:34:01.992Z,996.64
2022-07-31T08:35:01.960Z,996.64
2022-07-31T08:36:01.944Z,996.62
2022-07-31T08:37:52.119Z,996.69
2022-07-31T08:38:04.796Z,996.63
2022-07-31T08:39:01.947Z,996.53
2022-07-31T08:40:01.913Z,996.63
2022-07-31T08:41:01.909Z,996.65
2022-07-31T08:42:02.338Z,996.66
2022-07-31T08:43:03.172Z,996.60
2022-07-31T08:44:04.376Z,996.56
2022-07-31T08:45:02.887Z,996.61
2022-07-31T08:46:01.866Z,996.61
2022-07-31T08:47:01.861Z,996.64
2022-07-31T08:48:01.852Z,996.61
2022-07-31T08:49:01.957Z,996.58
2022-07-31T08:50:01.845Z,996.58
2022-07-31T08:51:01.826Z,996.54
2022-07-31T08:52:02.281Z,996.54
2022-07-31T08:53:01.811Z,996.53
2022-07-31T08:54:01.836Z,996.52
2022-07-31T08:55:01.798Z,996.53
2022-07-31T08:56:01.786Z,996.56
2022-07-31T08:57:02.165Z,996.50
2022-07-31T08:58:01.774Z,996.51
2022-07-31T08:59:01.792Z,996.50
2022-07-31T09:00:01.755Z,996.52
2022-07-31T09:01:01.819Z,996.49
2022-07-31T09:02:02.141Z,996.46
2022-07-31T09:03:01.733Z,996.51
2022-07-31T09:04:01.747Z,996.42
2022-07-31T09:05:01.720Z,996.47
2022-07-31T09:06:01.711Z,996.46
2022-07-31T09:07:02.102Z,996.42
2022-07-31T09:08:01.691Z,996.49
2022-07-31T09:09:01.718Z,996.40
2022-07-31T09:10:01.686Z,996.51
2022-07-31T09:11:01.681Z,996.44
2022-07-31T09:12:01.669Z,996.35
2022-07-31T09:13:01.687Z,996.37
2022-07-31T09:14:03.027Z,996.41
2022-07-31T09:15:01.677Z,996.38
2022-07-31T09:16:01.670Z,996.41
2022-07-31T09:17:02.026Z,996.36
2022-07-31T09:18:01.627Z,996.34
2022-07-31T09:19:01.606Z,996.31
2022-07-31T09:20:01.640Z,996.36
2022-07-31T09:21:02.070Z,996.31
2022-07-31T09:22:01.608Z,996.35
2022-07-31T09:23:01.585Z,996.28
2022-07-31T09:24:01.594Z,996.33
2022-07-31T09:25:01.601Z,996.31
2022-07-31T09:26:01.561Z,996.26
2022-07-31T09:27:01.722Z,996.29
2022-07-31T09:28:01.578Z,996.21
2022-07-31T09:29:01.551Z,996.23
2022-07-31T09:30:01.559Z,996.24
2022-07-31T09:31:01.532Z,996.25
2022-07-31T09:32:01.525Z,996.23
2022-07-31T09:33:01.518Z,996.22
2022-07-31T09:34:01.508Z,996.20
2022-07-31T09:35:01.528Z,996.14
2022-07-31T09:36:01.490Z,996.13
2022-07-31T09:37:01.735Z,996.18
2022-07-31T09:38:01.480Z,996.17
2022-07-31T09:39:05.258Z,996.15
2022-07-31T09:40:01.848Z,996.21
2022-07-31T09:41:01.465Z,996.18
2022-07-31T09:42:17.015Z,996.17
2022-07-31T09:43:03.198Z,996.19
2022-07-31T09:44:01.468Z,996.11
2022-07-31T09:45:01.466Z,996.22
2022-07-31T09:46:01.449Z,996.12
2022-07-31T09:47:01.702Z,996.14
2022-07-31T09:48:01.464Z,996.08
2022-07-31T09:49:01.447Z,996.10
2022-07-31T09:50:01.425Z,996.11
2022-07-31T09:51:01.391Z,996.08
2022-07-31T09:52:01.377Z,996.07
2022-07-31T09:53:01.364Z,996.00
2022-07-31T09:54:01.356Z,996.10
2022-07-31T09:55:01.404Z,996.05
2022-07-31T09:56:01.342Z,996.04
2022-07-31T09:57:01.526Z,996.06
2022-07-31T09:58:01.330Z,996.12
2022-07-31T09:59:01.318Z,996.12
2022-07-31T10:00:01.345Z,996.16
2022-07-31T10:01:01.361Z,996.06
2022-07-31T10:02:01.295Z,996.05
2022-07-31T10:03:01.295Z,996.03
2022-07-31T10:04:01.339Z,995.99
2022-07-31T10:05:01.324Z,996.02
2022-07-31T10:06:01.268Z,996.00
2022-07-31T10:07:01.448Z,996.07
2022-07-31T10:08:01.270Z,996.01
2022-07-31T10:09:01.251Z,996.02
2022-07-31T10:10:01.296Z,996.04
2022-07-31T10:11:01.231Z,995.95
2022-07-31T10:12:01.228Z,995.93
2022-07-31T10:13:01.298Z,995.91
2022-07-31T10:14:01.213Z,995.88
2022-07-31T10:15:01.233Z,995.88
2022-07-31T10:16:01.195Z,995.88
2022-07-31T10:17:02.565Z,995.87
2022-07-31T10:18:01.180Z,995.90
2022-07-31T10:19:01.181Z,995.88
2022-07-31T10:20:01.164Z,995.82
2022-07-31T10:21:01.183Z,995.82
2022-07-31T10:22:01.147Z,995.84
2022-07-31T10:23:01.143Z,995.76
2022-07-31T10:24:01.137Z,995.74
2022-07-31T10:25:01.119Z,995.70
2022-07-31T10:26:01.158Z,995.76
2022-07-31T10:27:07.804Z,995.69
2022-07-31T10:28:03.102Z,995.71
2022-07-31T10:29:01.099Z,995.77
2022-07-31T10:30:01.097Z,995.65
2022-07-31T10:31:01.119Z,995.68
2022-07-31T10:32:01.075Z,995.71
2022-07-31T10:33:01.064Z,995.67
2022-07-31T10:34:01.053Z,995.77
2022-07-31T10:35:01.051Z,995.71
2022-07-31T10:36:01.069Z,995.69
2022-07-31T10:37:01.173Z,995.63
2022-07-31T10:38:01.028Z,995.63
2022-07-31T10:39:01.015Z,995.58
2022-07-31T10:40:01.015Z,995.63
2022-07-31T10:41:01.036Z,995.72
2022-07-31T10:42:01.017Z,995.59
2022-07-31T10:43:01.018Z,995.64
2022-07-31T10:44:00.984Z,995.67
2022-07-31T10:45:00.970Z,995.61
2022-07-31T10:46:00.986Z,995.57
2022-07-31T10:47:00.953Z,995.59
2022-07-31T10:48:00.963Z,995.56
2022-07-31T10:49:00.978Z,995.60
2022-07-31T10:50:01.938Z,995.60
2022-07-31T10:51:00.947Z,995.49
2022-07-31T10:52:00.920Z,995.56
2022-07-31T10:53:00.910Z,995.43
2022-07-31T10:54:00.966Z,995.51
2022-07-31T10:55:00.902Z,995.50
2022-07-31T10:56:00.922Z,995.45
2022-07-31T10:57:00.981Z,995.46
2022-07-31T10:58:00.878Z,995.39
2022-07-31T10:59:00.863Z,995.42
2022-07-31T11:00:00.869Z,995.43
2022-07-31T11:01:00.876Z,995.40
2022-07-31T11:02:00.897Z,995.36
2022-07-31T11:03:00.884Z,995.31
2022-07-31T11:04:00.841Z,995.39
2022-07-31T11:05:00.828Z,995.37
2022-07-31T11:06:02.898Z,995.32
2022-07-31T11:07:00.814Z,995.35
2022-07-31T11:08:00.802Z,995.29
2022-07-31T11:09:00.794Z,995.29
2022-07-31T11:10:00.790Z,995.24
2022-07-31T11:11:00.817Z,995.23
2022-07-31T11:12:00.769Z,995.23
2022-07-31T11:13:00.758Z,995.25
2022-07-31T11:14:00.759Z,995.26
2022-07-31T11:15:00.749Z,995.19
2022-07-31T11:16:00.762Z,995.21
2022-07-31T11:17:00.756Z,995.23
2022-07-31T11:18:22.148Z,995.25
2022-07-31T11:19:01.734Z,995.24
2022-07-31T11:20:00.715Z,995.17
2022-07-31T11:21:06.187Z,995.19
2022-07-31T11:22:31.244Z,995.20
2022-07-31T11:23:01.692Z,995.13
2022-07-31T11:24:03.345Z,995.18
2022-07-31T11:25:00.822Z,995.20
2022-07-31T11:26:00.663Z,995.14
2022-07-31T11:27:00.687Z,995.17
2022-07-31T11:28:00.649Z,995.15
2022-07-31T11:30:00.452Z,995.17
2022-07-31T11:30:04.744Z,995.11
2022-07-31T11:31:02.635Z,995.10
2022-07-31T11:32:00.649Z,995.05
2022-07-31T11:33:00.613Z,995.10
2022-07-31T11:34:00.603Z,995.10
2022-07-31T11:35:00.601Z,995.14
2022-07-31T11:36:00.595Z,995.11
2022-07-31T11:37:00.617Z,995.05
2022-07-31T11:38:00.598Z,995.04
2022-07-31T11:39:00.619Z,994.99
2022-07-31T11:40:00.576Z,995.03
2022-07-31T11:41:00.563Z,995.05
2022-07-31T11:42:00.582Z,995.05
2022-07-31T11:43:24.762Z,995.11
2022-07-31T11:44:02.542Z,995.08
2022-07-31T11:45:00.539Z,995.12
2022-07-31T11:46:00.525Z,995.03
2022-07-31T11:47:00.568Z,995.09
2022-07-31T11:48:11.033Z,995.04
2022-07-31T11:49:01.577Z,995.03
2022-07-31T11:50:00.592Z,995.15
2022-07-31T11:51:00.490Z,995.20
2022-07-31T11:52:00.502Z,995.18
2022-07-31T11:53:00.472Z,995.16
2022-07-31T11:54:00.469Z,995.11
2022-07-31T11:55:04.231Z,995.14
2022-07-31T11:56:01.458Z,995.12
2022-07-31T11:57:00.580Z,995.17
2022-07-31T11:58:00.436Z,995.11
2022-07-31T11:59:00.418Z,995.07
2022-07-31T12:00:01.424Z,994.99
2022-07-31T12:01:01.416Z,995.03
2022-07-31T12:02:00.444Z,995.04
2022-07-31T12:03:00.477Z,995.03
2022-07-31T12:04:07.515Z,995.02
2022-07-31T12:05:01.392Z,994.96
2022-07-31T12:06:00.375Z,995.06
2022-07-31T12:07:00.410Z,995.10
2022-07-31T12:08:00.367Z,995.03
2022-07-31T12:09:00.354Z,995.08
2022-07-31T12:10:03.429Z,995.04
2022-07-31T12:11:00.355Z,995.01
2022-07-31T12:12:01.389Z,995.03
2022-07-31T12:13:00.334Z,995.06
2022-07-31T12:14:00.345Z,995.02
2022-07-31T12:15:00.318Z,995.02
2022-07-31T12:16:00.304Z,994.91
2022-07-31T12:17:00.306Z,994.86
2022-07-31T12:18:00.325Z,994.89
2022-07-31T12:19:00.282Z,994.89
2022-07-31T12:20:00.272Z,994.94
2022-07-31T12:21:00.272Z,994.92
2022-07-31T12:22:00.265Z,994.85
2022-07-31T12:23:00.273Z,994.77
2022-07-31T12:24:00.250Z,994.81
2022-07-31T12:25:00.244Z,994.82
2022-07-31T12:26:00.233Z,994.86
2022-07-31T12:27:00.227Z,994.82
2022-07-31T12:28:00.243Z,994.85